Spirit of St. Louis Airport

Current Flights

Info
Name: Spirit of St. Louis Airport
Identifier:  SUS/KSUS
Local Time:  24. Jun 20:21
City
Flights per Day
26 flights
Distance: 784km (487mi)
Punctuality
87% (3 flights per day delayed)
Delay Average: 5 minutes
Current Weather
 24 C (Humidity: 60%)
  8kt (14km/h / 9mph) from 280°
  Few clouds at 4,000 feet (1,219 meter)
  16km (10 mi.)
 METAR KSUS 250054Z 28008KT 10SM FEW040 24/16 A2983 RMK AO2 SLP093 T02440161

Current Delays

Departures
N/A
Arrivals
N/A

Destinations

Top Destinations
Airport Flights
per week
Seats
per week
  Kansas City (MKC) 12 - 1 0
  Denver (APA) 4 - 0 0
  Omaha (OMA) 4 - 0 0
  Cape Girardeau (CGI) 3 - 0 0
  Columbia (COU) 3 - 0 0
  Atlanta (PDK) 3 - 0 0
  Columbus (LCK) 3 - 0 0
  Springfield (SGF) 3 - 0 0
  Orlando (ORL) 3 - 0 0
  Chicago (MDW) 3 - 0 0

Airlines & Planes

Top Airlines
Airline Flights
per Day
Seats
per Day
Jet Charter Inc ( Franklin Lakes Nj ) 3 -
  Nolinor Aviation 2 -
  Flybe Nordic 2 -
  National Airlines 2 -
Nordwind Airlines 2 -
  Novair 1 -
  Ameriflight 1 -
Airnet 1 -
NetJets 1 -1
  Kalitta Charters II 1 -
Central Airlines 1 -
Top Plane Types
Model Flights Seats
Beech 58 1.7/day - 0
Fairchild SA227-DC Metro 23 1.4/day - 0
Aero Commander 500-S 1.3/day - 0
Pilatus PC-12 1.1/day - 0
Cirrus SR22 1.0/day - 0
Cessna C172 1.0/day - 0
Learjet 35A 1.0/day - 0
Dassault Falcon 20 0.7/day - 0
Piper PA-34-220T Seneca III 0.7/day - 0